Time;durP1;ratioP1;P1;durP2;ratioP2;P2;SDS_P1;SDS_P2;PMS_P1;PMS_P2;Temp;Humidity;BMP_temperature;BMP_pressure;BME280_temperature;BME280_humidity;BME280_pressure;Samples;Min_cycle;Max_cycle;Signal;HPM_P1;HPM_P2
2022/11/06 00:00:16;;;;;;;12.03;6.57;;;;;;;;;;5049156;28;20056;-61
2022/11/06 00:02:42;;;;;;;12.87;6.83;;;;;;;;;;5049362;28;20041;-62
2022/11/06 00:07:53;;;;;;;13.77;6.90;;;;;;;;;;5065769;28;20498;-61
2022/11/06 00:10:19;;;;;;;13.77;7.13;;;;;;;;;;5053973;28;20506;-62
2022/11/06 00:12:45;;;;;;;15.90;7.10;;;;;;;;;;5050346;28;20063;-62
2022/11/06 00:15:12;;;;;;;12.67;7.27;;;;;;;;;;5051268;28;20136;-61
2022/11/06 00:17:38;;;;;;;10.23;7.43;;;;;;;;;;5047398;28;20048;-61
2022/11/06 00:20:05;;;;;;;14.03;7.40;;;;;;;;;;5047595;28;20041;-61
2022/11/06 00:22:34;;;;;;;12.07;7.00;;;;;;;;;;5048499;28;20052;-61
2022/11/06 00:25:01;;;;;;;13.63;7.90;;;;;;;;;;5050412;28;20213;-61
2022/11/06 00:27:27;;;;;;;15.77;7.27;;;;;;;;;;5060089;28;20185;-61
2022/11/06 00:29:53;;;;;;;13.60;7.07;;;;;;;;;;5069197;28;20407;-61
2022/11/06 00:32:19;;;;;;;14.70;8.03;;;;;;;;;;5064888;28;20041;-62
2022/11/06 00:34:45;;;;;;;14.93;7.67;;;;;;;;;;5059968;28;20118;-62
2022/11/06 00:37:11;;;;;;;14.47;6.70;;;;;;;;;;5068060;28;20156;-62
2022/11/06 00:39:37;;;;;;;12.87;7.07;;;;;;;;;;5068098;28;20045;-61
2022/11/06 00:42:03;;;;;;;15.87;6.50;;;;;;;;;;5067606;28;20075;-61
2022/11/06 00:44:29;;;;;;;10.87;6.87;;;;;;;;;;5068041;28;20094;-61
2022/11/06 00:46:55;;;;;;;19.00;8.37;;;;;;;;;;5064652;28;20502;-62
2022/11/06 00:49:21;;;;;;;12.20;6.17;;;;;;;;;;5066467;28;20044;-62
2022/11/06 00:51:47;;;;;;;13.97;6.83;;;;;;;;;;5067801;28;20131;-61
2022/11/06 00:54:13;;;;;;;13.23;6.43;;;;;;;;;;5067846;28;20072;-61
2022/11/06 00:56:39;;;;;;;11.53;6.73;;;;;;;;;;5066777;28;20040;-61
2022/11/06 00:59:06;;;;;;;13.30;7.83;;;;;;;;;;5067845;28;20454;-62
2022/11/06 01:01:36;;;;;;;11.23;6.77;;;;;;;;;;5067453;28;20046;-61
2022/11/06 01:04:04;;;;;;;11.60;5.47;;;;;;;;;;5068344;28;20441;-61
2022/11/06 01:06:34;;;;;;;10.10;6.57;;;;;;;;;;5065641;28;20052;-61
2022/11/06 01:09:00;;;;;;;16.93;7.07;;;;;;;;;;5066241;28;20151;-62
2022/11/06 01:11:28;;;;;;;15.73;8.50;;;;;;;;;;5067137;28;20533;-63
2022/11/06 01:13:55;;;;;;;22.63;10.73;;;;;;;;;;5066156;28;20051;-64
2022/11/06 01:16:22;;;;;;;20.57;10.30;;;;;;;;;;5065249;28;20045;-64
2022/11/06 01:18:48;;;;;;;22.27;12.10;;;;;;;;;;5067805;28;20095;-69
2022/11/06 01:21:16;;;;;;;18.63;9.80;;;;;;;;;;5067966;28;20557;-64
2022/11/06 01:23:42;;;;;;;17.10;10.53;;;;;;;;;;5065905;28;20044;-65
2022/11/06 01:26:09;;;;;;;19.93;10.60;;;;;;;;;;5064552;28;20089;-65
2022/11/06 01:28:36;;;;;;;23.07;12.13;;;;;;;;;;5070578;28;20076;-65
2022/11/06 01:31:06;;;;;;;27.97;13.37;;;;;;;;;;5069782;28;20149;-65
2022/11/06 01:33:33;;;;;;;18.20;11.53;;;;;;;;;;5071277;28;20049;-65
2022/11/06 01:35:59;;;;;;;23.87;11.97;;;;;;;;;;5071452;28;20047;-65
2022/11/06 01:38:26;;;;;;;22.77;12.83;;;;;;;;;;5070683;28;20052;-65
2022/11/06 01:40:52;;;;;;;28.27;13.17;;;;;;;;;;5070550;28;20044;-64
2022/11/06 01:43:19;;;;;;;21.93;12.67;;;;;;;;;;5070803;28;20090;-65
2022/11/06 01:45:47;;;;;;;19.77;12.07;;;;;;;;;;5056751;28;20063;-65
2022/11/06 01:48:14;;;;;;;19.10;11.23;;;;;;;;;;5081978;28;20089;-64
2022/11/06 01:50:41;;;;;;;23.30;11.73;;;;;;;;;;5092271;28;20081;-65
2022/11/06 01:53:07;;;;;;;19.80;11.83;;;;;;;;;;5061570;28;20442;-65
2022/11/06 01:55:39;;;;;;;24.10;13.30;;;;;;;;;;5061719;28;20090;-64
2022/11/06 01:58:07;;;;;;;22.43;10.43;;;;;;;;;;5068684;28;20596;-65
2022/11/06 02:00:33;;;;;;;17.43;11.00;;;;;;;;;;5068892;28;20040;-65
2022/11/06 02:03:00;;;;;;;29.33;13.93;;;;;;;;;;5071279;28;20526;-65
2022/11/06 02:05:26;;;;;;;34.80;14.60;;;;;;;;;;5070867;28;20140;-64
2022/11/06 02:07:52;;;;;;;26.47;13.43;;;;;;;;;;5057491;28;20045;-64
2022/11/06 02:10:18;;;;;;;25.60;11.87;;;;;;;;;;5063558;28;20128;-64
2022/11/06 02:13:05;;;;;;;25.03;12.93;;;;;;;;;;5061367;28;20143;-64
2022/11/06 02:15:35;;;;;;;24.17;12.23;;;;;;;;;;5056383;28;20056;-64
2022/11/06 02:18:10;;;;;;;29.53;13.93;;;;;;;;;;5062189;28;20162;-64
2022/11/06 02:20:39;;;;;;;21.47;13.23;;;;;;;;;;5060987;28;20098;-64
2022/11/06 02:23:24;;;;;;;26.77;12.93;;;;;;;;;;5069391;28;20080;-64
2022/11/06 02:26:01;;;;;;;28.20;13.77;;;;;;;;;;5063183;28;20850;-64
2022/11/06 02:28:39;;;;;;;22.33;12.53;;;;;;;;;;5061538;28;20044;-64
2022/11/06 02:31:09;;;;;;;18.83;11.17;;;;;;;;;;5067861;28;20127;-64
2022/11/06 02:33:38;;;;;;;23.97;12.60;;;;;;;;;;5062072;28;20041;-64
2022/11/06 02:36:07;;;;;;;19.83;12.30;;;;;;;;;;5058970;28;20037;-64
2022/11/06 02:38:36;;;;;;;20.50;10.60;;;;;;;;;;5034739;28;20087;-64
2022/11/06 02:41:04;;;;;;;22.50;11.63;;;;;;;;;;5067382;28;20699;-64
2022/11/06 02:43:35;;;;;;;20.83;12.43;;;;;;;;;;5069389;28;20167;-64
2022/11/06 02:46:08;;;;;;;19.50;10.20;;;;;;;;;;5056719;28;20391;-64
2022/11/06 02:48:38;;;;;;;16.67;9.55;;;;;;;;;;5061804;28;20044;-64
2022/11/06 02:51:04;;;;;;;22.37;9.30;;;;;;;;;;5068945;28;20044;-64
2022/11/06 02:53:31;;;;;;;16.17;8.47;;;;;;;;;;5069281;28;20044;-64
2022/11/06 02:55:59;;;;;;;22.33;9.27;;;;;;;;;;5066656;28;20052;-64
2022/11/06 02:58:30;;;;;;;18.00;9.40;;;;;;;;;;5068475;28;20033;-64
2022/11/06 03:01:05;;;;;;;20.70;10.83;;;;;;;;;;5067527;28;20449;-64
2022/11/06 03:03:32;;;;;;;21.73;10.10;;;;;;;;;;5068943;28;20045;-64
2022/11/06 03:06:01;;;;;;;22.37;10.33;;;;;;;;;;5057230;28;20209;-64
2022/11/06 03:08:39;;;;;;;21.20;10.70;;;;;;;;;;5057666;28;20073;-64
2022/11/06 03:11:21;;;;;;;21.37;9.83;;;;;;;;;;5064652;28;20041;-64
2022/11/06 03:13:51;;;;;;;16.50;9.00;;;;;;;;;;5065836;28;20061;-64
2022/11/06 03:16:27;;;;;;;14.27;8.97;;;;;;;;;;5053385;28;20128;-64
2022/11/06 03:19:20;;;;;;;15.33;8.30;;;;;;;;;;5053305;28;20040;-64
2022/11/06 03:22:03;;;;;;;17.87;8.47;;;;;;;;;;5059747;28;20048;-64
2022/11/06 03:24:48;;;;;;;16.10;7.97;;;;;;;;;;5051164;28;20084;-64
2022/11/06 03:27:22;;;;;;;17.60;9.20;;;;;;;;;;5067983;28;20052;-64
2022/11/06 03:30:00;;;;;;;19.00;8.90;;;;;;;;;;5068362;28;20040;-64
2022/11/06 03:32:33;;;;;;;17.90;9.00;;;;;;;;;;5068136;28;20048;-64
2022/11/06 03:35:18;;;;;;;18.70;9.20;;;;;;;;;;5063774;28;20040;-64
2022/11/06 03:38:08;;;;;;;23.80;9.30;;;;;;;;;;5060234;28;20054;-64
2022/11/06 03:40:37;;;;;;;16.83;9.27;;;;;;;;;;5048201;28;20570;-65
2022/11/06 03:43:05;;;;;;;21.00;9.83;;;;;;;;;;5061993;28;20044;-65
2022/11/06 03:45:32;;;;;;;17.33;9.23;;;;;;;;;;5067363;28;20048;-65
2022/11/06 03:48:04;;;;;;;26.67;9.23;;;;;;;;;;5058791;28;20123;-65
2022/11/06 03:50:32;;;;;;;16.73;9.63;;;;;;;;;;5070947;28;20063;-64
2022/11/06 03:53:00;;;;;;;26.33;9.90;;;;;;;;;;5052606;28;20111;-65
2022/11/06 03:55:29;;;;;;;18.60;10.10;;;;;;;;;;5060595;28;20047;-65
2022/11/06 03:58:07;;;;;;;18.00;8.73;;;;;;;;;;5059361;28;20171;-65
2022/11/06 04:00:34;;;;;;;17.03;9.30;;;;;;;;;;5065072;28;20052;-65
2022/11/06 04:03:05;;;;;;;20.07;10.17;;;;;;;;;;5067794;28;20044;-65
2022/11/06 04:05:34;;;;;;;18.87;10.20;;;;;;;;;;5064616;28;20044;-65
2022/11/06 04:16:18;;;;;;;23.33;11.17;;;;;;;;;;5049341;28;20139;-65
2022/11/06 04:18:44;;;;;;;20.03;9.63;;;;;;;;;;5066757;28;20048;-65
2022/11/06 04:21:33;;;;;;;21.33;10.73;;;;;;;;;;5068617;28;20048;-65
2022/11/06 04:26:34;;;;;;;19.93;10.00;;;;;;;;;;5059097;28;20132;-65
2022/11/06 04:27:11;;;;;;;20.83;11.53;;;;;;;;;;5052376;28;20445;-65
2022/11/06 04:29:47;;;;;;;18.67;10.77;;;;;;;;;;5046340;28;20041;-65
2022/11/06 04:32:16;;;;;;;20.20;9.73;;;;;;;;;;5057995;28;20052;-65
2022/11/06 04:34:48;;;;;;;21.30;10.40;;;;;;;;;;5067470;28;20049;-65
2022/11/06 04:37:21;;;;;;;22.37;11.53;;;;;;;;;;5065437;28;20774;-65
2022/11/06 04:40:02;;;;;;;24.75;11.25;;;;;;;;;;5064809;28;20129;-65
2022/11/06 04:42:32;;;;;;;18.53;9.23;;;;;;;;;;5059294;28;20052;-65
2022/11/06 04:45:01;;;;;;;24.67;11.17;;;;;;;;;;5066126;28;20052;-65
2022/11/06 04:47:28;;;;;;;20.73;9.97;;;;;;;;;;5066048;28;20403;-65
2022/11/06 04:49:56;;;;;;;19.83;10.77;;;;;;;;;;5065599;28;20079;-65
2022/11/06 04:52:27;;;;;;;22.87;9.97;;;;;;;;;;5066386;28;20087;-65
2022/11/06 04:54:54;;;;;;;21.90;10.33;;;;;;;;;;5058551;28;20048;-65
2022/11/06 04:57:22;;;;;;;24.60;10.50;;;;;;;;;;5057579;28;20394;-65
2022/11/06 04:59:48;;;;;;;18.17;8.63;;;;;;;;;;5065456;28;20586;-65
2022/11/06 05:02:14;;;;;;;16.33;7.93;;;;;;;;;;5068272;28;20041;-65
2022/11/06 05:04:40;;;;;;;21.30;9.23;;;;;;;;;;5067549;28;20157;-65
2022/11/06 05:07:06;;;;;;;19.63;7.80;;;;;;;;;;5059598;28;20041;-65
2022/11/06 05:09:32;;;;;;;20.83;7.60;;;;;;;;;;5066271;28;20075;-65
2022/11/06 05:11:58;;;;;;;14.27;7.30;;;;;;;;;;5060187;28;20053;-65
2022/11/06 05:14:24;;;;;;;20.17;7.40;;;;;;;;;;5068908;28;20128;-65
2022/11/06 05:16:50;;;;;;;17.23;7.00;;;;;;;;;;5063394;28;20124;-65
2022/11/06 05:19:16;;;;;;;17.20;6.33;;;;;;;;;;5064894;28;20127;-64
2022/11/06 05:24:26;;;;;;;13.97;6.20;;;;;;;;;;5061744;28;20782;-65
2022/11/06 05:26:52;;;;;;;17.90;6.90;;;;;;;;;;5065729;28;20051;-64
2022/11/06 05:29:19;;;;;;;13.93;6.07;;;;;;;;;;5052426;28;20045;-65
2022/11/06 05:31:44;;;;;;;15.17;5.90;;;;;;;;;;5057021;28;20044;-66
2022/11/06 05:34:11;;;;;;;20.03;6.63;;;;;;;;;;5068346;28;20102;-64
2022/11/06 05:36:37;;;;;;;13.90;5.67;;;;;;;;;;5061171;28;20052;-64
2022/11/06 05:39:03;;;;;;;20.53;5.67;;;;;;;;;;5069978;28;20445;-65
2022/11/06 05:41:29;;;;;;;17.23;6.83;;;;;;;;;;5067220;28;20053;-66
2022/11/06 05:43:55;;;;;;;16.90;5.20;;;;;;;;;;5068506;28;20060;-65
2022/11/06 05:46:21;;;;;;;10.97;5.00;;;;;;;;;;5055858;28;20083;-66
2022/11/06 05:48:47;;;;;;;12.77;5.30;;;;;;;;;;5059833;28;20072;-65
2022/11/06 05:51:13;;;;;;;17.63;5.37;;;;;;;;;;5057857;28;20490;-65
2022/11/06 05:53:39;;;;;;;10.73;5.63;;;;;;;;;;5068208;28;20051;-65
2022/11/06 05:56:05;;;;;;;13.27;4.97;;;;;;;;;;5061285;28;20044;-65
2022/11/06 05:58:31;;;;;;;14.63;4.33;;;;;;;;;;5062029;28;20052;-65
2022/11/06 06:00:57;;;;;;;17.20;4.83;;;;;;;;;;5061879;28;20055;-65
2022/11/06 06:03:24;;;;;;;11.67;5.30;;;;;;;;;;5062517;28;20093;-65
2022/11/06 06:05:50;;;;;;;15.17;4.17;;;;;;;;;;5069520;28;20113;-65
2022/11/06 06:08:16;;;;;;;20.53;5.03;;;;;;;;;;5062032;28;20033;-65
2022/11/06 06:10:46;;;;;;;17.03;5.10;;;;;;;;;;5055025;28;20160;-65
2022/11/06 06:13:13;;;;;;;9.27;4.23;;;;;;;;;;5061414;28;20487;-65
2022/11/06 06:15:39;;;;;;;14.00;4.93;;;;;;;;;;5069647;28;20560;-65
2022/11/06 06:18:05;;;;;;;12.73;5.27;;;;;;;;;;5061139;28;20048;-65
2022/11/06 06:20:32;;;;;;;14.50;3.70;;;;;;;;;;5063897;28;20045;-65
2022/11/06 06:22:58;;;;;;;7.53;3.97;;;;;;;;;;5063412;28;20049;-63
2022/11/06 06:25:25;;;;;;;15.33;4.60;;;;;;;;;;5069892;28;20495;-63
2022/11/06 06:27:52;;;;;;;12.93;4.03;;;;;;;;;;5064064;28;20041;-62
2022/11/06 06:30:18;;;;;;;9.47;4.00;;;;;;;;;;5055055;28;20056;-64
2022/11/06 06:32:44;;;;;;;15.70;5.23;;;;;;;;;;5070906;28;20044;-64
2022/11/06 06:35:10;;;;;;;10.93;4.40;;;;;;;;;;5071116;28;20414;-63
2022/11/06 06:37:36;;;;;;;12.30;4.07;;;;;;;;;;5070530;28;20048;-64
2022/11/06 06:40:03;;;;;;;12.47;3.90;;;;;;;;;;5059438;28;20060;-64
2022/11/06 06:42:29;;;;;;;12.73;4.17;;;;;;;;;;5056470;28;20088;-64
2022/11/06 06:44:55;;;;;;;11.13;3.90;;;;;;;;;;5060363;28;20041;-64
2022/11/06 06:47:21;;;;;;;11.63;4.53;;;;;;;;;;5062486;28;20183;-64
2022/11/06 06:49:47;;;;;;;15.07;4.57;;;;;;;;;;5060087;28;20135;-65
2022/11/06 06:52:14;;;;;;;12.50;3.97;;;;;;;;;;5050560;28;20041;-65
2022/11/06 06:54:40;;;;;;;11.70;3.17;;;;;;;;;;5058821;28;20076;-64
2022/11/06 06:57:08;;;;;;;9.30;3.80;;;;;;;;;;5052284;28;20080;-64
2022/11/06 06:59:35;;;;;;;13.83;3.83;;;;;;;;;;5055068;28;20088;-65
2022/11/06 07:02:01;;;;;;;10.67;3.53;;;;;;;;;;5065180;28;20036;-64
2022/11/06 07:04:27;;;;;;;9.83;3.20;;;;;;;;;;5058086;28;20049;-65
2022/11/06 07:06:53;;;;;;;8.70;3.43;;;;;;;;;;5049040;28;20074;-64
2022/11/06 07:09:20;;;;;;;8.50;3.27;;;;;;;;;;5065436;28;20040;-64
2022/11/06 07:11:46;;;;;;;9.57;3.37;;;;;;;;;;5057116;28;20160;-64
2022/11/06 07:14:12;;;;;;;13.80;4.23;;;;;;;;;;5066290;28;20430;-64
2022/11/06 07:16:38;;;;;;;12.13;2.83;;;;;;;;;;5050707;28;20045;-64
2022/11/06 07:19:04;;;;;;;9.70;3.10;;;;;;;;;;5057717;28;20044;-64
2022/11/06 07:21:30;;;;;;;14.87;4.10;;;;;;;;;;5066201;28;20055;-64
2022/11/06 07:23:56;;;;;;;7.93;2.80;;;;;;;;;;5068632;28;20402;-64
2022/11/06 07:26:22;;;;;;;12.73;2.90;;;;;;;;;;5067954;28;20048;-65
2022/11/06 07:28:48;;;;;;;13.03;2.87;;;;;;;;;;5068529;28;20044;-65
2022/11/06 07:31:14;;;;;;;12.60;3.97;;;;;;;;;;5067393;28;20490;-64
2022/11/06 07:33:40;;;;;;;8.77;2.87;;;;;;;;;;5068826;28;20071;-65
2022/11/06 07:36:08;;;;;;;14.13;3.40;;;;;;;;;;5067618;28;20052;-64
2022/11/06 07:38:34;;;;;;;10.47;2.97;;;;;;;;;;5066896;28;20298;-65
2022/11/06 07:41:02;;;;;;;13.97;3.67;;;;;;;;;;5067593;28;20045;-65
2022/11/06 07:43:28;;;;;;;11.63;2.73;;;;;;;;;;5064317;28;20050;-64
2022/11/06 07:45:54;;;;;;;12.57;3.67;;;;;;;;;;5068779;28;20123;-64
2022/11/06 07:48:20;;;;;;;11.90;3.13;;;;;;;;;;5067035;28;20137;-64
2022/11/06 07:50:46;;;;;;;10.40;2.57;;;;;;;;;;5068055;28;20577;-64
2022/11/06 07:53:12;;;;;;;6.87;2.60;;;;;;;;;;5068202;28;20045;-69
2022/11/06 07:55:38;;;;;;;7.67;3.17;;;;;;;;;;5066080;28;20367;-64
2022/11/06 07:58:04;;;;;;;11.17;3.57;;;;;;;;;;5063926;28;20041;-64
2022/11/06 08:00:30;;;;;;;8.37;2.83;;;;;;;;;;5068066;28;20053;-64
2022/11/06 08:02:56;;;;;;;11.53;2.80;;;;;;;;;;5065710;28;20131;-64
2022/11/06 08:05:22;;;;;;;7.67;2.90;;;;;;;;;;5067426;28;20435;-65
2022/11/06 08:07:48;;;;;;;9.63;2.87;;;;;;;;;;5066201;28;20407;-64
2022/11/06 08:10:14;;;;;;;8.53;2.60;;;;;;;;;;5065089;28;20052;-64
2022/11/06 08:12:40;;;;;;;7.20;2.13;;;;;;;;;;5065673;28;20088;-65
2022/11/06 08:15:06;;;;;;;14.80;2.60;;;;;;;;;;5064272;28;20494;-64
2022/11/06 08:17:32;;;;;;;11.33;2.57;;;;;;;;;;5057270;28;20049;-64
2022/11/06 08:19:58;;;;;;;6.83;2.37;;;;;;;;;;5067121;28;20051;-64
2022/11/06 08:22:24;;;;;;;12.03;3.07;;;;;;;;;;5056610;28;20443;-64
2022/11/06 08:24:50;;;;;;;9.90;2.80;;;;;;;;;;5050551;28;20053;-64
2022/11/06 08:27:16;;;;;;;10.43;3.00;;;;;;;;;;5065623;28;20127;-64
2022/11/06 08:29:42;;;;;;;11.17;3.20;;;;;;;;;;5068268;28;20059;-65
2022/11/06 08:32:09;;;;;;;13.13;3.40;;;;;;;;;;5068522;28;20071;-65
2022/11/06 08:34:35;;;;;;;9.53;3.00;;;;;;;;;;5066437;28;20137;-65
2022/11/06 08:37:01;;;;;;;9.37;2.67;;;;;;;;;;5068335;28;20052;-65
2022/11/06 08:39:27;;;;;;;7.00;2.73;;;;;;;;;;5056809;28;20056;-65
2022/11/06 08:41:53;;;;;;;9.07;2.67;;;;;;;;;;5048180;28;20123;-65
2022/11/06 08:44:19;;;;;;;12.67;3.10;;;;;;;;;;5047767;28;20056;-64
2022/11/06 08:46:48;;;;;;;9.77;2.70;;;;;;;;;;5046101;28;20523;-65
2022/11/06 08:49:14;;;;;;;7.60;2.80;;;;;;;;;;5044775;28;20570;-65
2022/11/06 08:51:40;;;;;;;11.80;3.70;;;;;;;;;;5045896;28;20045;-64
2022/11/06 08:54:06;;;;;;;9.33;3.17;;;;;;;;;;5045044;28;20048;-65
2022/11/06 08:56:32;;;;;;;8.30;2.20;;;;;;;;;;5046822;28;20055;-65
2022/11/06 08:58:58;;;;;;;9.30;2.60;;;;;;;;;;5049347;28;20486;-65
2022/11/06 09:01:24;;;;;;;11.13;3.20;;;;;;;;;;5067114;28;20537;-65
2022/11/06 09:03:50;;;;;;;12.27;3.90;;;;;;;;;;5068072;28;20044;-65
2022/11/06 09:06:16;;;;;;;10.93;2.90;;;;;;;;;;5067520;28;20052;-65
2022/11/06 09:08:42;;;;;;;7.77;2.23;;;;;;;;;;5066544;28;20099;-65
2022/11/06 09:11:10;;;;;;;11.50;2.60;;;;;;;;;;5067895;28;20048;-64
2022/11/06 09:13:36;;;;;;;7.67;3.50;;;;;;;;;;5053358;28;20049;-65
2022/11/06 09:16:02;;;;;;;12.77;2.90;;;;;;;;;;5047862;28;20056;-65
2022/11/06 09:18:29;;;;;;;11.43;2.93;;;;;;;;;;5047826;28;20060;-64
2022/11/06 09:20:55;;;;;;;11.10;2.93;;;;;;;;;;5047828;28;20087;-64
2022/11/06 09:23:22;;;;;;;7.90;2.97;;;;;;;;;;5047386;28;20407;-65
2022/11/06 09:25:48;;;;;;;8.43;2.80;;;;;;;;;;5047715;28;20059;-65
2022/11/06 09:28:14;;;;;;;14.07;4.03;;;;;;;;;;5047856;28;20041;-65
2022/11/06 09:30:40;;;;;;;14.47;2.90;;;;;;;;;;5048255;28;20083;-65
2022/11/06 09:33:06;;;;;;;7.43;2.53;;;;;;;;;;5047744;28;20041;-65
2022/11/06 09:35:34;;;;;;;8.03;3.10;;;;;;;;;;5046340;28;20091;-65
2022/11/06 09:38:20;;;;;;;8.70;2.93;;;;;;;;;;5046713;28;20487;-65
2022/11/06 09:40:49;;;;;;;4.73;2.37;;;;;;;;;;5047669;28;20132;-65
2022/11/06 09:43:27;;;;;;;11.80;3.17;;;;;;;;;;5046707;28;20135;-65
2022/11/06 09:45:54;;;;;;;4.83;2.00;;;;;;;;;;5047762;28;20060;-65
2022/11/06 09:48:32;;;;;;;10.23;2.77;;;;;;;;;;5049804;28;20044;-65
2022/11/06 09:51:17;;;;;;;7.03;2.23;;;;;;;;;;5070168;28;20057;-65
2022/11/06 09:53:46;;;;;;;8.17;3.43;;;;;;;;;;5069681;28;20445;-65
2022/11/06 09:56:13;;;;;;;10.77;3.13;;;;;;;;;;5071010;28;20036;-64
2022/11/06 09:58:41;;;;;;;11.87;3.23;;;;;;;;;;5069519;28;20056;-65
2022/11/06 10:01:16;;;;;;;8.43;2.00;;;;;;;;;;5070713;28;20048;-65
2022/11/06 10:03:49;;;;;;;8.13;2.00;;;;;;;;;;5070076;28;20052;-65
2022/11/06 10:06:15;;;;;;;7.50;2.30;;;;;;;;;;5070819;28;20525;-64
2022/11/06 10:08:43;;;;;;;9.90;2.37;;;;;;;;;;5070744;28;20120;-65
2022/11/06 10:11:15;;;;;;;9.73;2.60;;;;;;;;;;5053321;28;20045;-65
2022/11/06 10:14:00;;;;;;;8.43;1.90;;;;;;;;;;5050493;28;20065;-64
2022/11/06 10:16:39;;;;;;;9.17;2.90;;;;;;;;;;5050721;28;20045;-64
2022/11/06 10:19:14;;;;;;;6.77;2.10;;;;;;;;;;5050563;28;20396;-64
2022/11/06 10:21:47;;;;;;;8.13;2.20;;;;;;;;;;5050719;28;20107;-64
2022/11/06 10:24:23;;;;;;;12.65;2.80;;;;;;;;;;5051042;28;20126;-65
2022/11/06 10:26:52;;;;;;;11.77;2.40;;;;;;;;;;5050457;28;20514;-64
2022/11/06 10:29:27;;;;;;;9.03;2.60;;;;;;;;;;5049284;28;20105;-65
2022/11/06 10:32:14;;;;;;;16.17;3.23;;;;;;;;;;5050382;28;20041;-66
2022/11/06 10:34:46;;;;;;;9.77;3.17;;;;;;;;;;5046195;28;20612;-66
2022/11/06 10:37:15;;;;;;;12.10;3.47;;;;;;;;;;5051082;28;20037;-65
2022/11/06 10:39:41;;;;;;;10.20;3.10;;;;;;;;;;5060174;28;20075;-65
2022/11/06 10:42:17;;;;;;;15.77;3.33;;;;;;;;;;5070333;28;20052;-65
2022/11/06 10:44:55;;;;;;;13.50;3.63;;;;;;;;;;5068552;28;20051;-65
2022/11/06 10:47:23;;;;;;;10.60;3.30;;;;;;;;;;5068136;28;20052;-65
2022/11/06 10:49:51;;;;;;;11.23;3.53;;;;;;;;;;5070219;28;20067;-65
2022/11/06 10:52:23;;;;;;;12.10;3.37;;;;;;;;;;5070316;28;20423;-65
2022/11/06 10:54:52;;;;;;;14.10;3.90;;;;;;;;;;5069240;28;20135;-65
2022/11/06 10:57:28;;;;;;;9.47;3.07;;;;;;;;;;5070248;28;20051;-65
2022/11/06 10:59:54;;;;;;;13.17;3.87;;;;;;;;;;5068626;28;20048;-65
2022/11/06 11:02:23;;;;;;;7.80;2.90;;;;;;;;;;5068692;28;20052;-65
2022/11/06 11:04:49;;;;;;;14.93;3.03;;;;;;;;;;5069800;28;20063;-65
2022/11/06 11:07:15;;;;;;;8.30;2.77;;;;;;;;;;5068645;28;20048;-65
2022/11/06 11:09:43;;;;;;;11.20;2.57;;;;;;;;;;5065319;28;20367;-65
2022/11/06 11:12:20;;;;;;;11.13;2.50;;;;;;;;;;5050176;28;20052;-65
2022/11/06 11:15:03;;;;;;;8.60;2.23;;;;;;;;;;5047950;28;20052;-64
2022/11/06 11:17:29;;;;;;;11.98;2.83;;;;;;;;;;5062186;28;20041;-65
2022/11/06 11:19:55;;;;;;;7.33;2.03;;;;;;;;;;5057631;28;20044;-65
2022/11/06 11:22:23;;;;;;;8.40;2.80;;;;;;;;;;5068313;28;20087;-65
2022/11/06 11:25:05;;;;;;;6.93;2.10;;;;;;;;;;5065289;28;20044;-65
2022/11/06 11:27:34;;;;;;;11.23;2.37;;;;;;;;;;5050877;28;20120;-65
2022/11/06 11:30:04;;;;;;;6.47;2.17;;;;;;;;;;5067032;28;20435;-65
2022/11/06 11:32:30;;;;;;;11.80;3.27;;;;;;;;;;5064070;28;20045;-65
2022/11/06 11:34:57;;;;;;;7.40;2.20;;;;;;;;;;5067376;28;20044;-65
2022/11/06 11:37:28;;;;;;;8.77;2.20;;;;;;;;;;5056992;28;20542;-65
2022/11/06 11:39:54;;;;;;;7.43;2.17;;;;;;;;;;5060611;28;20036;-65
2022/11/06 11:42:26;;;;;;;7.07;1.80;;;;;;;;;;5068488;28;20080;-65
2022/11/06 11:45:21;;;;;;;7.43;2.17;;;;;;;;;;5064244;28;20094;-65
2022/11/06 11:47:50;;;;;;;7.10;2.10;;;;;;;;;;5057396;28;20060;-65
2022/11/06 11:50:16;;;;;;;7.53;2.23;;;;;;;;;;5054871;28;20045;-65
2022/11/06 11:52:43;;;;;;;7.80;2.03;;;;;;;;;;5047443;28;20246;-65
2022/11/06 11:55:24;;;;;;;7.47;2.10;;;;;;;;;;5048869;28;20364;-65
2022/11/06 11:57:50;;;;;;;9.90;2.17;;;;;;;;;;5064673;28;20084;-65
2022/11/06 12:00:18;;;;;;;7.40;1.80;;;;;;;;;;5050558;28;20132;-65
2022/11/06 12:02:48;;;;;;;8.40;2.50;;;;;;;;;;5064344;28;20041;-65
2022/11/06 12:05:16;;;;;;;15.20;2.33;;;;;;;;;;5063445;28;20043;-65
2022/11/06 12:07:49;;;;;;;7.77;2.00;;;;;;;;;;5066952;28;20045;-65
2022/11/06 12:10:30;;;;;;;6.55;1.70;;;;;;;;;;5058964;28;20060;-65
2022/11/06 12:12:57;;;;;;;4.50;1.70;;;;;;;;;;5060514;28;20049;-65
2022/11/06 12:15:42;;;;;;;8.77;2.47;;;;;;;;;;5052121;28;20045;-65
2022/11/06 12:18:13;;;;;;;6.50;1.77;;;;;;;;;;5059367;28;20529;-65
2022/11/06 12:20:49;;;;;;;8.83;1.80;;;;;;;;;;5059758;28;20036;-65
2022/11/06 12:23:34;;;;;;;9.57;1.80;;;;;;;;;;5050704;28;20041;-65
2022/11/06 12:26:24;;;;;;;7.13;1.40;;;;;;;;;;5055248;28;20040;-65
2022/11/06 12:28:53;;;;;;;6.43;1.43;;;;;;;;;;5059669;28;20036;-65
2022/11/06 12:31:39;;;;;;;7.40;2.17;;;;;;;;;;5060870;28;20055;-65
2022/11/06 12:34:07;;;;;;;6.43;1.90;;;;;;;;;;5062341;28;20092;-65
2022/11/06 12:36:38;;;;;;;8.30;2.00;;;;;;;;;;5055391;28;20052;-65
2022/11/06 12:39:10;;;;;;;10.63;2.93;;;;;;;;;;5063888;28;20071;-66
2022/11/06 12:41:38;;;;;;;7.17;1.70;;;;;;;;;;5066442;28;20063;-65
2022/11/06 12:44:09;;;;;;;8.60;3.73;;;;;;;;;;5056608;28;20048;-64
2022/11/06 12:46:47;;;;;;;7.57;1.70;;;;;;;;;;5048224;28;20041;-65
2022/11/06 12:49:31;;;;;;;9.20;3.20;;;;;;;;;;5062428;28;20071;-63
2022/11/06 12:52:16;;;;;;;4.77;1.40;;;;;;;;;;5050864;28;20510;-64
2022/11/06 12:54:42;;;;;;;5.67;2.20;;;;;;;;;;5064762;28;20114;-63
2022/11/06 12:57:11;;;;;;;11.83;1.70;;;;;;;;;;5064553;28;20124;-63
2022/11/06 12:59:37;;;;;;;7.43;1.90;;;;;;;;;;5064187;28;20036;-63
2022/11/06 13:02:03;;;;;;;8.37;1.90;;;;;;;;;;5058845;28;20110;-63
2022/11/06 13:04:29;;;;;;;6.13;1.90;;;;;;;;;;5054735;28;20414;-63
2022/11/06 13:07:05;;;;;;;4.60;1.80;;;;;;;;;;5047004;28;20565;-65
2022/11/06 13:09:50;;;;;;;8.17;2.00;;;;;;;;;;5054918;28;20454;-65
2022/11/06 13:12:21;;;;;;;7.13;1.50;;;;;;;;;;5050037;28;20041;-65
2022/11/06 13:14:54;;;;;;;6.23;1.73;;;;;;;;;;5061297;28;20403;-65
2022/11/06 13:17:46;;;;;;;8.30;2.13;;;;;;;;;;5058903;28;20691;-64
2022/11/06 13:20:12;;;;;;;8.70;1.67;;;;;;;;;;5060636;28;20045;-64
2022/11/06 13:22:41;;;;;;;6.73;1.43;;;;;;;;;;5059823;28;20044;-64
2022/11/06 13:25:19;;;;;;;5.20;1.63;;;;;;;;;;5066019;28;20040;-64
2022/11/06 13:27:55;;;;;;;9.43;2.10;;;;;;;;;;5067251;28;20044;-64
2022/11/06 13:30:23;;;;;;;7.47;1.70;;;;;;;;;;5066698;28;20568;-64
2022/11/06 13:33:01;;;;;;;7.50;1.37;;;;;;;;;;5067029;28;20528;-64
2022/11/06 13:35:27;;;;;;;4.93;1.80;;;;;;;;;;5066679;28;20048;-64
2022/11/06 13:37:55;;;;;;;5.57;1.43;;;;;;;;;;5069207;28;20048;-64
2022/11/06 13:40:37;;;;;;;7.47;1.67;;;;;;;;;;5067396;28;20127;-64
2022/11/06 13:43:12;;;;;;;6.90;1.70;;;;;;;;;;5070370;28;20085;-64
2022/11/06 13:45:52;;;;;;;5.70;1.43;;;;;;;;;;5063784;28;20051;-64
2022/11/06 13:48:18;;;;;;;7.03;1.37;;;;;;;;;;5060131;28;20479;-64
2022/11/06 13:50:49;;;;;;;6.23;1.63;;;;;;;;;;5074378;28;20048;-64
2022/11/06 13:53:33;;;;;;;15.80;2.17;;;;;;;;;;5063144;28;20041;-63
2022/11/06 13:56:05;;;;;;;6.27;1.60;;;;;;;;;;5060777;28;20119;-64
2022/11/06 13:58:50;;;;;;;6.40;1.50;;;;;;;;;;5061961;28;20093;-64
2022/11/06 14:01:22;;;;;;;5.33;1.40;;;;;;;;;;5054691;28;20052;-64
2022/11/06 14:03:48;;;;;;;9.27;2.70;;;;;;;;;;5057604;28;20045;-63
2022/11/06 14:06:22;;;;;;;8.93;1.83;;;;;;;;;;5059196;28;20055;-63
2022/11/06 14:08:50;;;;;;;7.80;1.80;;;;;;;;;;5049800;28;20045;-64
2022/11/06 14:11:18;;;;;;;8.87;2.67;;;;;;;;;;5059373;28;20060;-64
2022/11/06 14:14:02;;;;;;;6.40;2.63;;;;;;;;;;5066878;28;20051;-64
2022/11/06 14:16:30;;;;;;;8.50;2.47;;;;;;;;;;5070319;28;20126;-63
2022/11/06 14:19:07;;;;;;;6.43;1.80;;;;;;;;;;5056862;28;20083;-64
2022/11/06 14:21:36;;;;;;;8.53;3.00;;;;;;;;;;5053667;28;20047;-63
2022/11/06 14:24:21;;;;;;;10.23;2.30;;;;;;;;;;5068919;28;20044;-64
2022/11/06 14:26:48;;;;;;;6.30;1.80;;;;;;;;;;5059550;28;20040;-63
2022/11/06 14:29:26;;;;;;;9.43;1.97;;;;;;;;;;5056015;28;20167;-64
2022/11/06 14:32:00;;;;;;;10.30;2.70;;;;;;;;;;5050305;28;20055;-64
2022/11/06 14:34:30;;;;;;;9.50;2.25;;;;;;;;;;5066257;28;20422;-64
2022/11/06 14:36:56;;;;;;;6.70;2.90;;;;;;;;;;5070559;28;20089;-64
2022/11/06 14:39:57;;;;;;;7.57;2.03;;;;;;;;;;5061860;28;20044;-64
2022/11/06 14:42:23;;;;;;;7.03;2.50;;;;;;;;;;5062153;28;20041;-64
2022/11/06 14:44:53;;;;;;;4.83;2.03;;;;;;;;;;5066208;28;20044;-64
2022/11/06 14:47:25;;;;;;;8.23;1.70;;;;;;;;;;5060961;28;20052;-64
2022/11/06 14:49:53;;;;;;;8.57;1.93;;;;;;;;;;5059277;28;20102;-64
2022/11/06 14:52:20;;;;;;;6.90;1.83;;;;;;;;;;5067183;28;20044;-64
2022/11/06 14:54:51;;;;;;;8.50;2.33;;;;;;;;;;5058834;28;20128;-64
2022/11/06 14:57:32;;;;;;;6.27;1.97;;;;;;;;;;5054851;28;20049;-63
2022/11/06 14:59:59;;;;;;;8.20;1.93;;;;;;;;;;5065427;28;20498;-61
2022/11/06 15:02:27;;;;;;;6.80;2.10;;;;;;;;;;5064118;28;20109;-62